Time;durP1;ratioP1;P1;durP2;ratioP2;P2;SDS_P1;SDS_P2;PMS_P1;PMS_P2;Temp;Humidity;BMP_temperature;BMP_pressure;BME280_temperature;BME280_humidity;BME280_pressure;Samples;Min_cycle;Max_cycle;Signal;HPM_P1;HPM_P2
2021/01/01 06:02:10;;;;;;;15.20;12.07;;;;;;;;;;5082906;28;20748;-61
2021/01/01 06:04:37;;;;;;;16.70;11.85;;;;;;;;;;5078841;28;20029;-61
2021/01/01 06:07:05;;;;;;;14.88;11.05;;;;;;;;;;5069491;28;20435;-61
2021/01/01 06:09:32;;;;;;;15.63;11.20;;;;;;;;;;5066308;28;20076;-61
2021/01/01 06:11:58;;;;;;;18.58;12.35;;;;;;;;;;5072825;28;20094;-61
2021/01/01 06:14:30;;;;;;;16.83;11.75;;;;;;;;;;5070599;28;20027;-61
2021/01/01 06:17:13;;;;;;;20.88;11.40;;;;;;;;;;5070542;28;20478;-61
2021/01/01 06:19:45;;;;;;;18.80;12.02;;;;;;;;;;5070356;28;20040;-61
2021/01/01 06:22:21;;;;;;;17.83;11.23;;;;;;;;;;5069744;28;20539;-61
2021/01/01 06:24:48;;;;;;;20.02;11.57;;;;;;;;;;5052902;28;20028;-61
2021/01/01 06:27:15;;;;;;;20.20;12.38;;;;;;;;;;5070343;28;20025;-61
2021/01/01 06:29:51;;;;;;;21.30;13.63;;;;;;;;;;5071521;28;20033;-61
2021/01/01 06:32:19;;;;;;;26.80;13.35;;;;;;;;;;5068796;28;20032;-61
2021/01/01 06:34:45;;;;;;;19.83;12.93;;;;;;;;;;5070154;28;20051;-61
2021/01/01 06:37:30;;;;;;;26.50;16.20;;;;;;;;;;5069702;28;20066;-61
2021/01/01 06:39:56;;;;;;;16.65;10.23;;;;;;;;;;5066861;28;20040;-61
2021/01/01 06:42:42;;;;;;;20.17;13.40;;;;;;;;;;5067753;28;20047;-61
2021/01/01 06:45:35;;;;;;;17.08;10.73;;;;;;;;;;5080214;28;20028;-60
2021/01/01 06:48:02;;;;;;;20.33;11.35;;;;;;;;;;5104917;28;20441;-61
2021/01/01 06:50:29;;;;;;;16.65;10.55;;;;;;;;;;5069502;28;20067;-60
2021/01/01 06:53:01;;;;;;;14.38;9.93;;;;;;;;;;5069864;28;20033;-60
2021/01/01 06:55:34;;;;;;;16.55;9.73;;;;;;;;;;5069726;28;20402;-60
2021/01/01 06:58:00;;;;;;;13.88;10.05;;;;;;;;;;5068242;28;20067;-60
2021/01/01 07:00:45;;;;;;;13.88;9.23;;;;;;;;;;5066457;28;20049;-60
2021/01/01 07:03:29;;;;;;;14.27;8.32;;;;;;;;;;5049717;28;20024;-60
2021/01/01 07:05:56;;;;;;;12.13;7.95;;;;;;;;;;5052690;28;20116;-60
2021/01/01 07:08:40;;;;;;;13.95;8.15;;;;;;;;;;5052199;28;20024;-60
2021/01/01 07:11:09;;;;;;;16.17;8.43;;;;;;;;;;5052124;28;20043;-60
2021/01/01 07:13:46;;;;;;;10.52;7.40;;;;;;;;;;5052094;28;20043;-61
2021/01/01 07:16:13;;;;;;;12.90;8.20;;;;;;;;;;5052207;28;20663;-60
2021/01/01 07:18:39;;;;;;;12.65;8.02;;;;;;;;;;5050698;28;20035;-61
2021/01/01 07:21:10;;;;;;;14.45;8.43;;;;;;;;;;5053945;28;20480;-61
2021/01/01 07:23:36;;;;;;;17.02;9.52;;;;;;;;;;5052545;28;20033;-61
2021/01/01 07:26:03;;;;;;;12.68;8.02;;;;;;;;;;5052135;28;20032;-61
2021/01/01 07:28:29;;;;;;;18.48;9.02;;;;;;;;;;5051783;28;20028;-61
2021/01/01 07:30:55;;;;;;;17.63;9.25;;;;;;;;;;5052096;28;20115;-61
2021/01/01 07:33:22;;;;;;;15.40;7.88;;;;;;;;;;5051716;28;20514;-61
2021/01/01 07:35:51;;;;;;;14.65;8.43;;;;;;;;;;5051473;28;20033;-60
2021/01/01 07:38:21;;;;;;;16.70;8.88;;;;;;;;;;5051010;28;20040;-60
2021/01/01 07:40:47;;;;;;;17.98;9.10;;;;;;;;;;5051637;28;20406;-60
2021/01/01 07:43:13;;;;;;;16.45;8.38;;;;;;;;;;5050121;28;20036;-60
2021/01/01 07:45:39;;;;;;;15.88;9.85;;;;;;;;;;5051809;28;20022;-60
2021/01/01 07:48:06;;;;;;;18.60;10.07;;;;;;;;;;5049032;28;20107;-60
2021/01/01 07:50:32;;;;;;;13.77;8.27;;;;;;;;;;5051312;28;20480;-60
2021/01/01 07:53:03;;;;;;;33.78;18.33;;;;;;;;;;5051625;28;20036;-60
2021/01/01 07:55:29;;;;;;;180.85;73.72;;;;;;;;;;5051602;28;20401;-60
2021/01/01 07:58:06;;;;;;;177.95;70.38;;;;;;;;;;5050206;28;20021;-60
2021/01/01 08:00:33;;;;;;;395.17;147.45;;;;;;;;;;5050298;28;20441;-60
2021/01/01 08:03:02;;;;;;;262.83;97.28;;;;;;;;;;5051929;28;20036;-60
2021/01/01 08:05:29;;;;;;;255.40;93.80;;;;;;;;;;5050324;28;20710;-60
2021/01/01 08:07:55;;;;;;;315.08;118.07;;;;;;;;;;5051124;28;20037;-60
2021/01/01 08:10:31;;;;;;;271.23;114.90;;;;;;;;;;5050474;28;20106;-60
2021/01/01 08:12:57;;;;;;;216.70;96.13;;;;;;;;;;5051711;28;20024;-60
2021/01/01 08:15:27;;;;;;;133.68;65.38;;;;;;;;;;5054668;28;20536;-60
2021/01/01 08:17:53;;;;;;;134.45;60.92;;;;;;;;;;5054986;28;20029;-60
2021/01/01 08:20:19;;;;;;;85.97;44.85;;;;;;;;;;5055583;28;20041;-60
2021/01/01 08:22:48;;;;;;;51.72;28.75;;;;;;;;;;5054083;28;20017;-60
2021/01/01 08:25:15;;;;;;;56.40;26.92;;;;;;;;;;5061073;28;20033;-60
2021/01/01 08:27:42;;;;;;;19.15;13.77;;;;;;;;;;5051080;28;20036;-60
2021/01/01 08:30:09;;;;;;;26.35;14.75;;;;;;;;;;5063272;28;20124;-60
2021/01/01 08:32:35;;;;;;;37.92;21.60;;;;;;;;;;5058585;28;20512;-60
2021/01/01 08:35:02;;;;;;;23.88;13.77;;;;;;;;;;5057575;28;20095;-60
2021/01/01 08:37:28;;;;;;;30.60;17.90;;;;;;;;;;5057268;28;20418;-60
2021/01/01 08:40:01;;;;;;;23.42;13.65;;;;;;;;;;5057367;28;20025;-60
2021/01/01 08:42:32;;;;;;;18.70;10.50;;;;;;;;;;5056320;28;20019;-60
2021/01/01 08:44:58;;;;;;;11.50;6.82;;;;;;;;;;5061131;28;20478;-60
2021/01/01 08:47:43;;;;;;;5.72;3.75;;;;;;;;;;5058892;28;21582;-60
2021/01/01 08:50:25;;;;;;;10.93;6.87;;;;;;;;;;5060176;28;20020;-59
2021/01/01 08:53:01;;;;;;;6.53;4.35;;;;;;;;;;5055218;28;20048;-59
2021/01/01 08:55:28;;;;;;;11.10;6.25;;;;;;;;;;5056833;28;20029;-59
2021/01/01 08:58:06;;;;;;;10.52;5.93;;;;;;;;;;5059211;28;20501;-59
2021/01/01 09:00:32;;;;;;;15.65;8.77;;;;;;;;;;5054536;28;20135;-60
2021/01/01 09:02:59;;;;;;;10.73;7.30;;;;;;;;;;5054938;28;20569;-59
2021/01/01 09:05:27;;;;;;;10.55;5.15;;;;;;;;;;5049629;28;20123;-59
2021/01/01 09:08:10;;;;;;;11.60;5.90;;;;;;;;;;5049423;28;20474;-59
2021/01/01 09:10:36;;;;;;;11.35;6.18;;;;;;;;;;5049636;28;20079;-59
2021/01/01 09:13:32;;;;;;;8.77;5.45;;;;;;;;;;5049679;28;20017;-59
2021/01/01 09:16:09;;;;;;;7.50;6.43;;;;;;;;;;5037177;28;20033;-60
2021/01/01 09:18:35;;;;;;;6.18;4.45;;;;;;;;;;5049034;28;20021;-59
2021/01/01 09:21:12;;;;;;;7.45;3.75;;;;;;;;;;5051226;28;20407;-60
2021/01/01 09:23:38;;;;;;;5.70;2.95;;;;;;;;;;5048418;28;20136;-59
2021/01/01 09:26:05;;;;;;;7.15;2.83;;;;;;;;;;5044417;28;20494;-60
2021/01/01 09:28:31;;;;;;;5.60;3.08;;;;;;;;;;5048081;28;20536;-60
2021/01/01 09:30:57;;;;;;;4.93;2.70;;;;;;;;;;5046932;28;20021;-59
2021/01/01 09:33:23;;;;;;;3.85;2.97;;;;;;;;;;5049907;28;20542;-59
2021/01/01 09:35:50;;;;;;;4.38;2.72;;;;;;;;;;5051084;28;20029;-60
2021/01/01 09:38:16;;;;;;;5.47;3.42;;;;;;;;;;5047494;28;20485;-60
2021/01/01 09:40:42;;;;;;;5.45;2.70;;;;;;;;;;5047490;28;20080;-60
2021/01/01 09:43:09;;;;;;;5.20;3.50;;;;;;;;;;5047691;28;20048;-60
2021/01/01 09:45:35;;;;;;;7.35;4.30;;;;;;;;;;5048107;28;20032;-60
2021/01/01 09:48:02;;;;;;;9.35;6.00;;;;;;;;;;5049726;28;20033;-60
2021/01/01 09:50:28;;;;;;;14.57;7.30;;;;;;;;;;5047280;28;20598;-61
2021/01/01 09:52:54;;;;;;;13.02;7.45;;;;;;;;;;5047476;28;20040;-60
2021/01/01 09:55:20;;;;;;;13.85;9.35;;;;;;;;;;5047392;28;20474;-60
2021/01/01 09:57:47;;;;;;;19.23;9.93;;;;;;;;;;5047394;28;20045;-59
2021/01/01 10:00:14;;;;;;;9.80;6.82;;;;;;;;;;5049380;28;20085;-60
2021/01/01 10:02:41;;;;;;;9.30;5.47;;;;;;;;;;5049697;28;20028;-60
2021/01/01 10:05:07;;;;;;;7.32;4.72;;;;;;;;;;5047305;28;20453;-60
2021/01/01 10:07:33;;;;;;;6.82;4.57;;;;;;;;;;5048706;28;20036;-60
2021/01/01 10:10:00;;;;;;;9.15;4.70;;;;;;;;;;5047153;28;20018;-60
2021/01/01 10:12:26;;;;;;;9.55;5.95;;;;;;;;;;5048434;28;20064;-59
2021/01/01 10:14:57;;;;;;;14.73;9.68;;;;;;;;;;5039853;28;20505;-60
2021/01/01 10:17:24;;;;;;;16.08;8.55;;;;;;;;;;5034974;28;20615;-60
2021/01/01 10:19:50;;;;;;;11.02;6.50;;;;;;;;;;5042087;28;20108;-59
2021/01/01 10:22:16;;;;;;;24.00;15.57;;;;;;;;;;5044970;28;20486;-61
2021/01/01 10:24:44;;;;;;;22.08;15.48;;;;;;;;;;5045203;28;20028;-59
2021/01/01 10:27:10;;;;;;;21.73;16.00;;;;;;;;;;5046392;28;20044;-60
2021/01/01 10:29:36;;;;;;;23.45;14.98;;;;;;;;;;5046791;28;20029;-59
2021/01/01 10:32:09;;;;;;;21.52;13.23;;;;;;;;;;5041712;28;20024;-60
2021/01/01 10:34:39;;;;;;;19.45;14.10;;;;;;;;;;5045859;28;20112;-59
2021/01/01 10:37:05;;;;;;;21.02;14.43;;;;;;;;;;5046337;28;20104;-60
2021/01/01 10:39:31;;;;;;;27.30;14.05;;;;;;;;;;5049385;28;20056;-60
2021/01/01 10:41:57;;;;;;;19.23;11.57;;;;;;;;;;5050722;28;20376;-60
2021/01/01 10:44:23;;;;;;;15.55;10.25;;;;;;;;;;5047990;28;20557;-60
2021/01/01 10:46:53;;;;;;;15.75;10.85;;;;;;;;;;5050079;28;20566;-59
2021/01/01 10:49:20;;;;;;;16.48;9.55;;;;;;;;;;5038635;28;20024;-60
2021/01/01 10:51:46;;;;;;;16.58;12.27;;;;;;;;;;5048543;28;20027;-60
2021/01/01 10:54:12;;;;;;;20.40;13.82;;;;;;;;;;5051067;28;20032;-60
2021/01/01 10:56:38;;;;;;;23.60;15.57;;;;;;;;;;5048731;28;20033;-60
2021/01/01 10:59:04;;;;;;;25.73;18.05;;;;;;;;;;5050833;28;20120;-59
2021/01/01 11:01:30;;;;;;;23.75;17.27;;;;;;;;;;5047211;28;20730;-60
2021/01/01 11:03:57;;;;;;;21.70;14.50;;;;;;;;;;5048115;28;20459;-60
2021/01/01 11:06:23;;;;;;;20.15;12.77;;;;;;;;;;5050014;28;20083;-60
2021/01/01 11:08:49;;;;;;;18.88;12.13;;;;;;;;;;5049246;28;20429;-60
2021/01/01 11:11:20;;;;;;;15.77;11.23;;;;;;;;;;5047426;28;20029;-60
2021/01/01 11:13:50;;;;;;;11.10;7.70;;;;;;;;;;5048660;28;20032;-59
2021/01/01 12:22:29;;;;;;;7.53;5.10;;;;;;;;;;5047376;28;20515;-60
2021/01/01 12:24:56;;;;;;;9.95;5.90;;;;;;;;;;5050144;28;20029;-60
2021/01/01 12:27:24;;;;;;;13.95;8.23;;;;;;;;;;5052888;28;20028;-60
2021/01/01 12:29:51;;;;;;;12.63;8.68;;;;;;;;;;5054721;28;20024;-61
2021/01/01 12:32:19;;;;;;;11.82;8.57;;;;;;;;;;5050758;28;20040;-60
2021/01/01 12:34:45;;;;;;;9.82;8.05;;;;;;;;;;5048939;28;20049;-60
2021/01/01 12:37:11;;;;;;;12.07;8.93;;;;;;;;;;5047715;28;20056;-60
2021/01/01 12:39:38;;;;;;;14.68;9.05;;;;;;;;;;5034275;28;20040;-60
2021/01/01 12:42:04;;;;;;;12.32;8.70;;;;;;;;;;5051579;28;20028;-60
2021/01/01 12:44:31;;;;;;;14.23;10.02;;;;;;;;;;5049439;28;20048;-60
2021/01/01 12:46:57;;;;;;;23.05;12.60;;;;;;;;;;5049620;28;20025;-60
2021/01/01 12:49:23;;;;;;;22.48;13.38;;;;;;;;;;5048672;28;20021;-60
2021/01/01 12:51:50;;;;;;;18.48;13.00;;;;;;;;;;5048759;28;20021;-60
2021/01/01 12:54:16;;;;;;;21.42;11.70;;;;;;;;;;5050444;28;20033;-60
2021/01/01 12:56:42;;;;;;;21.50;14.40;;;;;;;;;;5048402;28;20406;-60
2021/01/01 12:59:08;;;;;;;22.63;15.15;;;;;;;;;;5050051;28;20041;-60
2021/01/01 13:01:35;;;;;;;21.88;16.63;;;;;;;;;;5047733;28;20040;-60
2021/01/01 13:04:01;;;;;;;22.73;16.77;;;;;;;;;;5047733;28;20029;-60
2021/01/01 13:06:27;;;;;;;24.35;18.88;;;;;;;;;;5050344;28;20064;-60
2021/01/01 13:08:57;;;;;;;20.20;15.80;;;;;;;;;;5049666;28;20033;-60
2021/01/01 13:11:26;;;;;;;21.60;13.23;;;;;;;;;;5056721;28;20056;-60
2021/01/01 13:13:53;;;;;;;19.23;11.32;;;;;;;;;;5054799;28;20421;-60
2021/01/01 13:16:22;;;;;;;14.25;9.88;;;;;;;;;;5059372;28;20059;-60
2021/01/01 13:18:49;;;;;;;13.98;9.82;;;;;;;;;;5057698;28;20016;-61
2021/01/01 13:21:24;;;;;;;12.00;8.88;;;;;;;;;;5053051;28;20072;-60
2021/01/01 13:23:50;;;;;;;11.95;9.55;;;;;;;;;;5060991;28;20082;-60
2021/01/01 13:26:24;;;;;;;19.73;13.20;;;;;;;;;;5056527;28;20104;-60
2021/01/01 13:29:14;;;;;;;20.60;15.70;;;;;;;;;;5055167;28;20029;-58
2021/01/01 13:31:58;;;;;;;14.20;11.10;;;;;;;;;;5054751;28;20029;-57
2021/01/01 13:34:27;;;;;;;14.43;11.23;;;;;;;;;;5058904;28;20013;-58
2021/01/01 13:37:00;;;;;;;15.40;11.50;;;;;;;;;;5047297;28;20027;-57
2021/01/01 13:39:26;;;;;;;14.82;10.98;;;;;;;;;;5048252;28;20037;-58
2021/01/01 13:41:52;;;;;;;19.10;10.15;;;;;;;;;;5049278;28;20083;-57
2021/01/01 13:44:19;;;;;;;17.90;10.93;;;;;;;;;;5047903;28;20048;-58
2021/01/01 13:46:45;;;;;;;15.35;9.15;;;;;;;;;;5047859;28;20108;-57
2021/01/01 13:49:12;;;;;;;11.48;8.30;;;;;;;;;;5048113;28;20021;-58
2021/01/01 13:51:38;;;;;;;14.38;9.25;;;;;;;;;;5031976;28;20450;-57
2021/01/01 13:54:04;;;;;;;10.13;7.72;;;;;;;;;;5050831;28;20032;-57
2021/01/01 13:56:31;;;;;;;9.15;6.75;;;;;;;;;;5047540;28;20393;-57
2021/01/01 13:58:57;;;;;;;12.43;6.78;;;;;;;;;;5046077;28;20531;-55
2021/01/01 14:01:23;;;;;;;8.15;6.45;;;;;;;;;;5049020;28;20110;-56
2021/01/01 14:03:52;;;;;;;8.32;5.50;;;;;;;;;;5047331;28;20112;-58
2021/01/01 14:06:19;;;;;;;7.45;6.05;;;;;;;;;;5049601;28;20108;-58
2021/01/01 14:08:45;;;;;;;7.75;6.03;;;;;;;;;;5048656;28;20033;-59
2021/01/01 14:11:12;;;;;;;7.28;4.63;;;;;;;;;;5047651;28;20065;-59
2021/01/01 14:13:39;;;;;;;9.43;5.53;;;;;;;;;;5051600;28;20036;-59
2021/01/01 14:16:09;;;;;;;11.00;5.90;;;;;;;;;;5051806;28;20090;-59
2021/01/01 14:18:35;;;;;;;11.30;7.78;;;;;;;;;;5052024;28;20033;-59
2021/01/01 14:21:01;;;;;;;8.73;6.07;;;;;;;;;;5053469;28;20075;-59
2021/01/01 14:23:27;;;;;;;10.40;6.32;;;;;;;;;;5051794;28;20039;-59
2021/01/01 14:25:53;;;;;;;13.15;6.30;;;;;;;;;;5053138;28;20029;-60
2021/01/01 14:28:19;;;;;;;9.77;5.93;;;;;;;;;;5051288;28;20025;-57
2021/01/01 14:30:45;;;;;;;7.05;4.80;;;;;;;;;;5051550;28;20086;-56
2021/01/01 14:33:11;;;;;;;11.60;5.30;;;;;;;;;;5054725;28;20115;-59
2021/01/01 14:35:38;;;;;;;8.25;5.18;;;;;;;;;;5051297;28;20029;-58
2021/01/01 14:38:04;;;;;;;6.90;4.47;;;;;;;;;;5050993;28;20029;-59
2021/01/01 14:40:31;;;;;;;11.10;5.00;;;;;;;;;;5060301;28;20044;-58
2021/01/01 14:43:12;;;;;;;9.35;4.53;;;;;;;;;;5059096;28;20059;-57
2021/01/01 14:45:39;;;;;;;8.73;4.50;;;;;;;;;;5034600;28;20090;-58
2021/01/01 14:48:06;;;;;;;11.20;5.05;;;;;;;;;;5054477;28;20031;-59
2021/01/01 14:50:32;;;;;;;6.80;4.35;;;;;;;;;;5050838;28;20025;-58
2021/01/01 14:52:58;;;;;;;6.25;3.92;;;;;;;;;;5051047;28;20505;-59
2021/01/01 14:55:24;;;;;;;5.60;3.10;;;;;;;;;;5050590;28;20047;-60
2021/01/01 14:57:50;;;;;;;4.60;2.72;;;;;;;;;;5050256;28;20026;-59
2021/01/01 15:00:17;;;;;;;5.50;3.38;;;;;;;;;;5053035;28;20053;-59
2021/01/01 15:02:43;;;;;;;5.15;2.65;;;;;;;;;;5052332;28;20112;-59
2021/01/01 15:05:10;;;;;;;4.03;3.42;;;;;;;;;;5050566;28;20044;-59
2021/01/01 15:07:36;;;;;;;7.78;3.88;;;;;;;;;;5050731;28;20393;-58
2021/01/01 15:10:02;;;;;;;4.53;2.10;;;;;;;;;;5050796;28;20025;-59
2021/01/01 15:12:29;;;;;;;4.35;2.50;;;;;;;;;;5052313;28;20074;-59
2021/01/01 15:14:55;;;;;;;7.50;2.95;;;;;;;;;;5052529;28;20031;-59
2021/01/01 15:17:21;;;;;;;11.20;4.57;;;;;;;;;;5050089;28;20017;-59
2021/01/01 15:19:48;;;;;;;6.35;3.33;;;;;;;;;;5049828;28;20029;-59
2021/01/01 15:22:18;;;;;;;6.15;3.10;;;;;;;;;;5049583;28;20052;-58
2021/01/01 15:24:44;;;;;;;4.20;2.92;;;;;;;;;;5050409;28;20052;-59
2021/01/01 15:27:10;;;;;;;5.05;2.83;;;;;;;;;;5053733;28;20024;-59
2021/01/01 15:29:36;;;;;;;5.20;3.25;;;;;;;;;;5051716;28;20051;-59
2021/01/01 15:32:03;;;;;;;7.97;3.83;;;;;;;;;;5050070;28;20017;-59
2021/01/01 15:34:29;;;;;;;9.30;4.72;;;;;;;;;;5050178;28;20029;-59
2021/01/01 15:36:55;;;;;;;7.97;4.55;;;;;;;;;;5049955;28;20104;-60
2021/01/01 15:39:21;;;;;;;11.05;4.38;;;;;;;;;;5052602;28;20037;-60
2021/01/01 15:41:48;;;;;;;7.03;3.72;;;;;;;;;;5047227;28;20036;-59
2021/01/01 15:44:15;;;;;;;6.05;3.40;;;;;;;;;;5049335;28;20044;-59
2021/01/01 15:46:41;;;;;;;8.00;4.53;;;;;;;;;;5049406;28;20017;-60
2021/01/01 15:49:08;;;;;;;9.07;4.05;;;;;;;;;;5049851;28;20025;-59
2021/01/01 15:51:34;;;;;;;7.38;5.18;;;;;;;;;;5050621;28;20026;-60
2021/01/01 15:54:00;;;;;;;9.85;6.00;;;;;;;;;;5051953;28;20029;-60
2021/01/01 15:56:26;;;;;;;8.80;5.43;;;;;;;;;;5048785;28;20140;-60
2021/01/01 15:58:53;;;;;;;10.50;5.60;;;;;;;;;;5049408;28;20021;-59
2021/01/01 16:01:19;;;;;;;9.68;6.10;;;;;;;;;;5047978;28;20615;-60
2021/01/01 16:03:45;;;;;;;11.63;6.80;;;;;;;;;;5040038;28;20051;-60
2021/01/01 16:06:11;;;;;;;7.75;6.35;;;;;;;;;;5049314;28;20033;-59
2021/01/01 16:08:37;;;;;;;8.65;5.57;;;;;;;;;;5035719;28;20033;-60
2021/01/01 16:11:04;;;;;;;9.27;6.10;;;;;;;;;;5034919;28;20039;-59
2021/01/01 16:13:30;;;;;;;9.60;5.95;;;;;;;;;;5045872;28;20066;-59
2021/01/01 16:15:56;;;;;;;11.27;4.57;;;;;;;;;;5044818;28;20017;-59
2021/01/01 16:18:22;;;;;;;6.72;4.70;;;;;;;;;;5042750;28;20040;-60
2021/01/01 16:20:48;;;;;;;11.45;5.15;;;;;;;;;;5029743;28;20064;-60
2021/01/01 16:23:14;;;;;;;10.07;5.45;;;;;;;;;;5032002;28;20160;-59
2021/01/01 16:25:40;;;;;;;11.82;5.43;;;;;;;;;;5029945;28;20037;-60
2021/01/01 16:28:06;;;;;;;13.88;6.20;;;;;;;;;;5031300;28;20029;-60
2021/01/01 16:30:32;;;;;;;14.30;7.80;;;;;;;;;;5045567;28;20070;-60
2021/01/01 16:32:58;;;;;;;16.88;8.93;;;;;;;;;;5035877;28;20044;-60
2021/01/01 16:35:25;;;;;;;18.25;9.43;;;;;;;;;;5043142;28;20035;-59
2021/01/01 16:37:51;;;;;;;14.07;8.65;;;;;;;;;;5044924;28;20029;-59
2021/01/01 16:40:17;;;;;;;12.35;9.02;;;;;;;;;;5044619;28;20410;-59
2021/01/01 16:42:43;;;;;;;23.35;11.07;;;;;;;;;;5044822;28;20110;-60
2021/01/01 16:45:11;;;;;;;17.58;10.75;;;;;;;;;;5044043;28;20044;-59
2021/01/01 16:47:38;;;;;;;24.95;10.50;;;;;;;;;;5047376;28;20032;-59
2021/01/01 16:50:05;;;;;;;20.98;11.10;;;;;;;;;;5045255;28;20029;-60
2021/01/01 16:52:31;;;;;;;19.48;12.23;;;;;;;;;;5046731;28;20017;-60
2021/01/01 16:54:57;;;;;;;19.95;12.43;;;;;;;;;;5044776;28;20039;-60
2021/01/01 16:57:23;;;;;;;18.17;12.25;;;;;;;;;;5047282;28;20024;-60
2021/01/01 16:59:49;;;;;;;30.27;13.70;;;;;;;;;;5045510;28;20025;-60
2021/01/01 17:02:15;;;;;;;36.08;15.02;;;;;;;;;;5039319;28;20021;-60
2021/01/01 17:04:42;;;;;;;35.22;20.92;;;;;;;;;;5039308;28;20114;-60
2021/01/01 17:07:08;;;;;;;39.63;23.50;;;;;;;;;;5047249;28;20394;-60
2021/01/01 17:09:34;;;;;;;31.73;22.27;;;;;;;;;;5046340;28;20399;-60
2021/01/01 17:12:00;;;;;;;32.63;21.73;;;;;;;;;;5050431;28;20028;-60
2021/01/01 17:14:26;;;;;;;38.38;24.58;;;;;;;;;;5048962;28;20033;-60
2021/01/01 17:16:56;;;;;;;41.42;25.40;;;;;;;;;;5047736;28;20025;-60
2021/01/01 17:19:23;;;;;;;36.70;22.63;;;;;;;;;;5047314;28;20025;-60
2021/01/01 17:21:49;;;;;;;33.65;19.90;;;;;;;;;;5046965;28;20037;-60
2021/01/01 17:24:15;;;;;;;27.98;19.45;;;;;;;;;;5050337;28;20079;-60
2021/01/01 17:26:41;;;;;;;35.97;19.50;;;;;;;;;;5048729;28;20021;-60
2021/01/01 17:29:07;;;;;;;28.52;20.65;;;;;;;;;;5046963;28;20059;-60
2021/01/01 17:31:34;;;;;;;35.55;20.55;;;;;;;;;;5047186;28;20028;-59
2021/01/01 17:34:05;;;;;;;30.65;19.80;;;;;;;;;;5047362;28;20120;-60
2021/01/01 17:36:32;;;;;;;28.48;19.95;;;;;;;;;;5049008;28;20044;-60
2021/01/01 17:38:59;;;;;;;41.22;22.38;;;;;;;;;;5049832;28;20036;-60
2021/01/01 17:41:25;;;;;;;36.88;23.15;;;;;;;;;;5047313;28;20052;-60
2021/01/01 17:43:52;;;;;;;61.20;27.90;;;;;;;;;;5047035;28;20056;-60
2021/01/01 17:46:18;;;;;;;52.88;28.10;;;;;;;;;;5047592;28;20072;-60
2021/01/01 17:48:45;;;;;;;66.13;38.30;;;;;;;;;;5047821;28;20021;-60
2021/01/01 17:51:12;;;;;;;73.47;41.53;;;;;;;;;;5049728;28;20029;-60
2021/01/01 17:53:38;;;;;;;70.15;38.50;;;;;;;;;;5047891;28;20024;-60
2021/01/01 17:56:05;;;;;;;87.30;50.58;;;;;;;;;;5048548;28;20024;-60
2021/01/01 17:58:31;;;;;;;92.80;59.17;;;;;;;;;;5046720;28;20117;-60
2021/01/01 18:00:57;;;;;;;96.00;61.85;;;;;;;;;;5046967;28;20060;-60
2021/01/01 18:03:24;;;;;;;109.55;68.85;;;;;;;;;;5049073;28;20033;-60
2021/01/01 18:05:50;;;;;;;92.43;63.00;;;;;;;;;;5048345;28;20520;-59
2021/01/01 18:08:21;;;;;;;115.22;71.20;;;;;;;;;;5047222;28;20025;-59
2021/01/01 18:10:47;;;;;;;113.20;71.65;;;;;;;;;;5047049;28;20079;-60
2021/01/01 18:13:13;;;;;;;106.63;69.38;;;;;;;;;;5046576;28;20017;-60
2021/01/01 18:15:43;;;;;;;111.70;68.70;;;;;;;;;;5046646;28;20025;-60
2021/01/01 18:18:10;;;;;;;123.97;74.57;;;;;;;;;;5051705;28;20082;-60
2021/01/01 18:20:36;;;;;;;101.55;61.28;;;;;;;;;;5055239;28;20040;-60
2021/01/01 18:23:21;;;;;;;112.20;69.68;;;;;;;;;;5046240;28;20022;-60
2021/01/01 18:26:06;;;;;;;113.55;68.00;;;;;;;;;;5046800;28;20036;-60
2021/01/01 18:28:39;;;;;;;158.73;77.68;;;;;;;;;;5046905;28;20263;-60
2021/01/01 18:31:05;;;;;;;126.65;79.90;;;;;;;;;;5046685;28;20066;-59
2021/01/01 18:33:32;;;;;;;126.68;79.03;;;;;;;;;;5047732;28;20025;-60
2021/01/01 18:36:03;;;;;;;115.55;75.32;;;;;;;;;;5049344;28;20033;-60
2021/01/01 18:38:35;;;;;;;126.38;71.93;;;;;;;;;;5046961;28;20037;-60
2021/01/01 18:41:01;;;;;;;129.27;70.57;;;;;;;;;;5046318;28;20502;-60
2021/01/01 18:43:34;;;;;;;113.47;72.63;;;;;;;;;;5046088;28;20048;-60
2021/01/01 18:46:02;;;;;;;118.30;77.50;;;;;;;;;;5047255;28;20478;-60
2021/01/01 18:48:30;;;;;;;105.43;69.72;;;;;;;;;;5048524;28;20033;-60
2021/01/01 18:50:57;;;;;;;113.38;71.50;;;;;;;;;;5048955;28;20032;-60
2021/01/01 18:53:25;;;;;;;109.05;72.10;;;;;;;;;;5047205;28;20429;-60
2021/01/01 18:55:53;;;;;;;90.30;64.20;;;;;;;;;;5046644;28;20063;-60
2021/01/01 18:58:19;;;;;;;81.68;60.40;;;;;;;;;;5048677;28;20043;-60
2021/01/01 19:00:50;;;;;;;91.47;62.25;;;;;;;;;;5050694;28;20140;-60
2021/01/01 19:03:20;;;;;;;96.85;67.75;;;;;;;;;;5053113;28;20079;-60
2021/01/01 19:05:48;;;;;;;96.57;70.22;;;;;;;;;;5051889;28;20035;-60
2021/01/01 19:08:14;;;;;;;117.40;74.53;;;;;;;;;;5050379;28;20021;-60
2021/01/01 19:10:42;;;;;;;97.07;68.07;;;;;;;;;;5049523;28;20035;-60
2021/01/01 19:13:12;;;;;;;111.13;70.88;;;;;;;;;;5056023;28;20104;-60
2021/01/01 19:15:39;;;;;;;103.68;69.40;;;;;;;;;;5056966;28;20202;-60
2021/01/01 19:18:06;;;;;;;105.57;74.35;;;;;;;;;;5058168;28;20024;-61
2021/01/01 19:20:43;;;;;;;115.78;73.82;;;;;;;;;;5033619;28;20554;-60
2021/01/01 19:23:19;;;;;;;110.22;78.53;;;;;;;;;;5034198;28;20168;-61
2021/01/01 19:25:46;;;;;;;152.43;97.20;;;;;;;;;;5041936;28;20146;-60
2021/01/01 19:28:13;;;;;;;160.65;106.10;;;;;;;;;;5046902;28;20052;-60
2021/01/01 19:30:58;;;;;;;161.90;96.85;;;;;;;;;;5045055;28;20540;-60
2021/01/01 19:33:24;;;;;;;137.13;101.22;;;;;;;;;;5046104;28;20025;-60
2021/01/01 19:35:56;;;;;;;111.05;73.60;;;;;;;;;;5047078;28;20029;-60
2021/01/01 19:38:25;;;;;;;103.30;73.43;;;;;;;;;;5044675;28;20059;-60
2021/01/01 19:41:07;;;;;;;221.35;143.32;;;;;;;;;;5045728;28;20029;-60
2021/01/01 19:43:51;;;;;;;172.55;107.35;;;;;;;;;;5037155;28;20041;-60
2021/01/01 19:46:21;;;;;;;129.83;83.57;;;;;;;;;;5045820;28;20413;-60
2021/01/01 19:48:49;;;;;;;104.32;66.70;;;;;;;;;;5046169;28;20103;-60
2021/01/01 19:51:23;;;;;;;112.25;72.28;;;;;;;;;;5048801;28;20044;-60
2021/01/01 19:53:49;;;;;;;122.50;72.93;;;;;;;;;;5049122;28;20037;-60
2021/01/01 19:56:15;;;;;;;73.55;47.67;;;;;;;;;;5044250;28;20040;-60
2021/01/01 19:58:47;;;;;;;149.77;77.65;;;;;;;;;;5038499;28;20171;-60
2021/01/01 20:01:24;;;;;;;93.72;60.83;;;;;;;;;;5036320;28;20041;-60
2021/01/01 20:04:01;;;;;;;74.78;49.83;;;;;;;;;;5042267;28;20216;-61
2021/01/01 20:06:29;;;;;;;184.75;99.07;;;;;;;;;;5047876;28;20505;-60
2021/01/01 20:09:02;;;;;;;208.73;98.75;;;;;;;;;;5047417;28;20021;-60
2021/01/01 20:11:31;;;;;;;167.52;94.10;;;;;;;;;;5047026;28;20025;-60
2021/01/01 20:14:03;;;;;;;172.93;92.22;;;;;;;;;;5044238;28;20025;-60
2021/01/01 20:16:29;;;;;;;136.85;79.93;;;;;;;;;;5045535;28;20037;-60
2021/01/01 20:18:55;;;;;;;123.22;70.60;;;;;;;;;;5044449;28;20014;-60
2021/01/01 20:21:27;;;;;;;125.85;74.82;;;;;;;;;;5047348;28;20044;-60
2021/01/01 20:23:55;;;;;;;117.88;65.63;;;;;;;;;;5037336;28;20108;-60
2021/01/01 20:26:22;;;;;;;109.63;62.38;;;;;;;;;;5041043;28;20108;-60
2021/01/01 20:28:51;;;;;;;109.53;61.22;;;;;;;;;;5045502;28;20115;-60
2021/01/01 20:31:19;;;;;;;98.32;60.83;;;;;;;;;;5043477;28;20059;-60
2021/01/01 20:33:49;;;;;;;108.72;63.58;;;;;;;;;;5041675;28;20060;-60
2021/01/01 20:36:22;;;;;;;100.10;62.55;;;;;;;;;;5041324;28;20025;-60
2021/01/01 20:39:07;;;;;;;117.90;75.63;;;;;;;;;;5032614;28;20637;-60
2021/01/01 20:41:33;;;;;;;129.90;88.40;;;;;;;;;;5038546;28;20046;-61
2021/01/01 20:44:11;;;;;;;130.25;85.03;;;;;;;;;;5041508;28;20510;-60
2021/01/01 20:57:39;;;;;;;129.55;90.30;;;;;;;;;;5042875;28;20059;-60
2021/01/01 21:00:10;;;;;;;127.75;88.20;;;;;;;;;;5046766;28;20095;-60
2021/01/01 21:02:43;;;;;;;128.70;89.50;;;;;;;;;;5042499;28;20518;-60
2021/01/01 21:05:10;;;;;;;139.65;100.78;;;;;;;;;;5048558;28;20024;-60
2021/01/01 21:07:45;;;;;;;166.50;120.97;;;;;;;;;;5056473;28;20033;-60
2021/01/01 21:10:11;;;;;;;;;;;;;;;;;;5057644;28;20034;-60
2021/01/01 21:12:37;;;;;;;180.90;130.27;;;;;;;;;;5056500;28;19912;-60
2021/01/01 21:15:26;;;;;;;193.18;136.13;;;;;;;;;;5059328;28;20496;-60
2021/01/01 21:18:01;;;;;;;183.70;127.60;;;;;;;;;;5050933;28;20481;-60
2021/01/01 21:20:28;;;;;;;;;;;;;;;;;;5054618;28;20094;-61
2021/01/01 21:22:57;;;;;;;159.23;112.88;;;;;;;;;;5054283;28;19905;-60
2021/01/01 21:25:23;;;;;;;170.90;118.57;;;;;;;;;;5054604;28;20031;-61
2021/01/01 21:28:21;;;;;;;164.77;118.63;;;;;;;;;;5051342;28;20024;-60
2021/01/01 21:31:06;;;;;;;156.98;112.00;;;;;;;;;;5052614;28;20049;-60
2021/01/01 21:33:49;;;;;;;149.90;107.03;;;;;;;;;;5051979;28;20133;-60
2021/01/01 21:36:21;;;;;;;142.20;100.13;;;;;;;;;;5052971;28;20052;-60
2021/01/01 21:39:05;;;;;;;118.32;87.22;;;;;;;;;;5046083;28;20218;-60
2021/01/01 21:41:41;;;;;;;82.05;58.83;;;;;;;;;;5044800;28;20059;-60
2021/01/01 21:44:12;;;;;;;133.18;94.65;;;;;;;;;;5045912;28;20406;-61
2021/01/01 21:46:39;;;;;;;138.30;97.80;;;;;;;;;;5045506;28;20126;-60
2021/01/01 21:49:13;;;;;;;132.93;94.10;;;;;;;;;;5045338;28;20029;-60